North Providence, Rhode Island
Current Conditions -  °F | °C
As of 11:35 PM on Wednesday 26 Nov 2014 (Local Time) from KSFZ Reporting Station
Overcast Overcast  
Wind Chill: -4°   Ceiling: 800
Heat Index:   Visibility: 3mi
Dew Point: -3°   Wind: 15mph
Humidity: 75%   Direction: 360°N
Pressure: 29.64"   Gusts: 28mph
Location:  41.86°N, 71.48°W
Report Text: KSFZ 270435Z 36013G24KT 3SM BKN008 OVC014 01/M03 A2964 RMK AO1 P0001
Loading
Personal Weather Stations






























Interactive Weather Map New forecast layout! Learn more

10-Day Weather Forecast

Advertisements
Track Severe Weather on mobile